Time;durP1;ratioP1;P1;durP2;ratioP2;P2;SDS_P1;SDS_P2;PMS_P1;PMS_P2;Temp;Humidity;BMP_temperature;BMP_pressure;BME280_temperature;BME280_humidity;BME280_pressure;Samples;Min_cycle;Max_cycle;Signal;HPM_P1;HPM_P2
2022/11/18 00:01:45;;;;;;;1.13;0.80;;;9.30;99.90;;;;;;5034151;28;20452;-69
2022/11/18 00:04:12;;;;;;;0.93;0.90;;;9.30;99.90;;;;;;5033789;28;20459;-68
2022/11/18 00:06:39;;;;;;;1.23;1.10;;;9.30;99.90;;;;;;5034245;28;20452;-68
2022/11/18 00:09:05;;;;;;;1.30;1.20;;;9.30;99.90;;;;;;5033972;28;20456;-68
2022/11/18 00:14:21;;;;;;;1.27;1.10;;;9.20;99.90;;;;;;5033491;28;20451;-68
2022/11/18 00:16:50;;;;;;;1.43;1.20;;;9.20;99.90;;;;;;5033873;28;20524;-68
2022/11/18 00:19:17;;;;;;;2.33;1.30;;;9.20;99.90;;;;;;5033778;28;20456;-68
2022/11/18 00:21:43;;;;;;;1.70;1.60;;;9.20;99.90;;;;;;5033713;28;20505;-69
2022/11/18 00:24:10;;;;;;;1.10;1.10;;;9.20;99.90;;;;;;5033818;28;20498;-68
2022/11/18 00:26:38;;;;;;;1.20;1.10;;;9.20;99.90;;;;;;5033826;28;20452;-68
2022/11/18 00:29:05;;;;;;;3.90;1.30;;;9.20;99.90;;;;;;5034311;28;20452;-68
2022/11/18 00:31:31;;;;;;;3.40;1.20;;;9.30;99.90;;;;;;5033843;28;20452;-69
2022/11/18 00:33:58;;;;;;;1.40;1.30;;;9.30;99.90;;;;;;5035195;28;20463;-68
2022/11/18 00:36:25;;;;;;;1.30;1.20;;;9.30;99.90;;;;;;5046165;28;20478;-68
2022/11/18 00:38:51;;;;;;;1.50;1.10;;;9.30;99.90;;;;;;5049195;28;20456;-67
2022/11/18 00:41:18;;;;;;;1.40;1.30;;;9.30;99.90;;;;;;5044274;28;20502;-68
2022/11/18 00:43:45;;;;;;;1.33;1.00;;;9.30;99.90;;;;;;5041644;28;20448;-68
2022/11/18 00:46:12;;;;;;;1.40;1.30;;;9.30;99.90;;;;;;5041318;28;20475;-67
2022/11/18 00:48:40;;;;;;;1.10;1.10;;;9.30;99.90;;;;;;5037940;28;20459;-68
2022/11/18 00:51:13;;;;;;;1.17;1.17;;;9.30;99.90;;;;;;5037262;28;20935;-68
2022/11/18 00:53:39;;;;;;;1.30;1.20;;;9.30;99.90;;;;;;5037255;28;20493;-68
2022/11/18 00:56:07;;;;;;;1.30;1.20;;;9.30;99.90;;;;;;5037234;28;20983;-69
2022/11/18 00:58:34;;;;;;;1.40;1.30;;;9.20;99.90;;;;;;5037345;28;20455;-69
2022/11/18 01:01:02;;;;;;;3.83;1.33;;;9.20;99.90;;;;;;5037572;28;20534;-69
2022/11/18 01:03:30;;;;;;;1.30;1.30;;;9.20;99.90;;;;;;5037446;28;20458;-68
2022/11/18 01:05:56;;;;;;;1.30;0.97;;;9.20;99.90;;;;;;5036973;28;20506;-68
2022/11/18 01:08:23;;;;;;;1.60;1.47;;;9.20;99.90;;;;;;5037180;28;20456;-68
2022/11/18 01:10:51;;;;;;;2.20;1.33;;;9.10;99.90;;;;;;5037300;28;20451;-68
2022/11/18 01:13:18;;;;;;;1.77;1.67;;;9.20;99.90;;;;;;5036962;28;20477;-69
2022/11/18 01:15:47;;;;;;;1.00;1.00;;;9.10;99.90;;;;;;5036792;28;20517;-68
2022/11/18 01:18:16;;;;;;;1.70;1.60;;;9.10;99.90;;;;;;5036981;28;20451;-68
2022/11/18 01:20:43;;;;;;;1.50;1.40;;;9.10;99.90;;;;;;5036996;28;20503;-68
2022/11/18 01:23:10;;;;;;;3.97;1.70;;;9.10;99.90;;;;;;5036738;28;20456;-68
2022/11/18 01:25:38;;;;;;;1.77;1.60;;;9.10;99.90;;;;;;5036954;28;20867;-68
2022/11/18 01:28:05;;;;;;;3.10;1.30;;;9.10;99.90;;;;;;5036620;28;20506;-69
2022/11/18 01:30:34;;;;;;;1.30;1.17;;;9.10;99.90;;;;;;5036603;28;20455;-68
2022/11/18 01:33:01;;;;;;;3.80;1.53;;;9.10;99.90;;;;;;5036447;28;20546;-69
2022/11/18 01:35:29;;;;;;;2.03;1.50;;;9.10;99.90;;;;;;5036442;28;20530;-70
2022/11/18 01:37:56;;;;;;;2.13;1.40;;;9.10;99.90;;;;;;5036351;28;20463;-69
2022/11/18 01:40:23;;;;;;;1.60;1.50;;;9.10;99.90;;;;;;5036366;28;20456;-69
2022/11/18 01:42:49;;;;;;;1.67;1.53;;;9.10;99.90;;;;;;5036131;28;20947;-69
2022/11/18 01:45:26;;;;;;;1.30;1.30;;;9.20;99.90;;;;;;5036348;28;20521;-69
2022/11/18 01:47:58;;;;;;;1.40;1.33;;;9.20;99.90;;;;;;5036315;28;20857;-69
2022/11/18 01:50:26;;;;;;;1.90;1.80;;;9.10;99.90;;;;;;5036122;28;20470;-69
2022/11/18 01:53:01;;;;;;;2.63;1.23;;;9.10;99.90;;;;;;5036119;28;20881;-69
2022/11/18 01:55:33;;;;;;;1.57;1.57;;;9.20;99.90;;;;;;5035635;28;20479;-69
2022/11/18 01:58:12;;;;;;;3.03;1.10;;;9.20;99.90;;;;;;5035726;28;20934;-69
2022/11/18 02:00:39;;;;;;;0.90;0.90;;;9.20;99.90;;;;;;5036319;28;20459;-68
2022/11/18 02:03:08;;;;;;;1.07;1.07;;;9.20;99.90;;;;;;5036262;28;20501;-69
2022/11/18 02:05:36;;;;;;;1.17;0.90;;;9.10;99.90;;;;;;5035726;28;21058;-68
2022/11/18 02:08:07;;;;;;;1.77;0.97;;;9.10;99.90;;;;;;5036378;28;20456;-68
2022/11/18 02:10:34;;;;;;;2.63;1.40;;;9.10;99.90;;;;;;5036369;28;20436;-69
2022/11/18 02:13:01;;;;;;;1.00;1.00;;;9.10;99.90;;;;;;5036659;28;20872;-69
2022/11/18 02:15:42;;;;;;;1.00;0.90;;;9.10;99.90;;;;;;5036446;28;20533;-69
2022/11/18 02:18:19;;;;;;;1.27;1.00;;;9.10;99.90;;;;;;5036514;28;20440;-69
2022/11/18 02:20:50;;;;;;;1.97;1.43;;;9.10;99.90;;;;;;5036806;28;20498;-69
2022/11/18 02:23:48;;;;;;;1.50;0.97;;;9.10;99.90;;;;;;5036719;28;20436;-69
2022/11/18 02:26:54;;;;;;;1.67;1.07;;;9.10;99.90;;;;;;5036437;28;20545;-69
2022/11/18 02:29:26;;;;;;;2.87;1.40;;;9.10;99.90;;;;;;5036080;28;20440;-69
2022/11/18 02:31:58;;;;;;;1.20;0.80;;;9.10;99.90;;;;;;5035998;28;20436;-69
2022/11/18 02:34:35;;;;;;;0.90;0.90;;;9.10;99.90;;;;;;5036027;28;20547;-68
2022/11/18 02:37:07;;;;;;;2.00;1.40;;;9.10;99.90;;;;;;5039937;28;20431;-68
2022/11/18 02:39:38;;;;;;;1.30;1.30;;;9.10;99.90;;;;;;5043373;28;20444;-69
2022/11/18 02:42:09;;;;;;;1.33;1.23;;;9.10;99.90;;;;;;5043478;28;20444;-68
2022/11/18 02:44:41;;;;;;;1.20;1.10;;;9.20;99.90;;;;;;5043328;28;20884;-68
2022/11/18 02:47:11;;;;;;;2.50;1.30;;;9.20;99.90;;;;;;5043101;28;20441;-68
2022/11/18 02:49:41;;;;;;;3.00;0.97;;;9.20;99.90;;;;;;5042376;28;20449;-68
2022/11/18 02:52:11;;;;;;;1.20;1.20;;;9.20;99.90;;;;;;5037395;28;20880;-69
2022/11/18 02:54:41;;;;;;;1.60;1.03;;;9.30;99.90;;;;;;5036839;28;20480;-68
2022/11/18 02:57:08;;;;;;;1.90;0.90;;;9.30;99.90;;;;;;5036330;28;20829;-69
2022/11/18 02:59:36;;;;;;;1.33;0.80;;;9.30;99.90;;;;;;5036539;28;20514;-68
2022/11/18 03:02:04;;;;;;;1.17;0.73;;;9.30;99.90;;;;;;5036179;28;20452;-70
2022/11/18 03:04:32;;;;;;;1.33;0.77;;;9.30;99.90;;;;;;5034676;28;20476;-69
2022/11/18 03:07:09;;;;;;;1.03;0.50;;;9.40;99.90;;;;;;5034366;28;20478;-69
2022/11/18 03:09:39;;;;;;;2.33;1.07;;;9.40;99.90;;;;;;5034756;28;20449;-70
2022/11/18 03:12:14;;;;;;;0.80;0.80;;;9.40;99.90;;;;;;5035181;28;20959;-70
2022/11/18 03:14:50;;;;;;;2.07;1.10;;;9.40;99.90;;;;;;5034492;28;20494;-69
2022/11/18 03:17:21;;;;;;;1.00;0.90;;;9.40;99.90;;;;;;5034928;28;20494;-70
2022/11/18 03:20:00;;;;;;;0.80;0.80;;;9.40;99.90;;;;;;5034471;28;20440;-69
2022/11/18 03:22:32;;;;;;;0.70;0.70;;;9.40;99.90;;;;;;5034610;28;20436;-69
2022/11/18 03:25:04;;;;;;;1.40;1.20;;;9.40;99.90;;;;;;5034474;28;20472;-69
2022/11/18 03:27:36;;;;;;;1.20;1.10;;;9.30;99.90;;;;;;5034397;28;20974;-69
2022/11/18 03:30:08;;;;;;;1.23;1.00;;;9.40;99.90;;;;;;5045538;28;20447;-70
2022/11/18 03:32:40;;;;;;;0.93;0.80;;;9.40;99.90;;;;;;5045702;28;20839;-68
2022/11/18 03:35:12;;;;;;;0.70;0.70;;;9.40;99.90;;;;;;5034832;28;20529;-69
2022/11/18 03:37:43;;;;;;;0.90;0.90;;;9.40;99.90;;;;;;5034032;28;20444;-69
2022/11/18 03:40:15;;;;;;;1.00;0.90;;;9.40;99.90;;;;;;5034239;28;20523;-69
2022/11/18 03:42:44;;;;;;;0.90;0.63;;;9.40;99.90;;;;;;5034113;28;20436;-68
2022/11/18 03:45:17;;;;;;;3.50;0.80;;;9.40;99.90;;;;;;5034052;28;20468;-69
2022/11/18 03:47:47;;;;;;;1.23;0.60;;;9.40;99.90;;;;;;5034167;28;20443;-69
2022/11/18 03:50:19;;;;;;;2.20;0.70;;;9.30;99.90;;;;;;5033963;28;20448;-68
2022/11/18 03:52:48;;;;;;;1.60;0.63;;;9.30;99.90;;;;;;5033855;28;20928;-69
2022/11/18 03:55:18;;;;;;;2.00;0.80;;;9.30;99.90;;;;;;5033935;28;20487;-69
2022/11/18 03:57:50;;;;;;;1.60;1.00;;;9.30;99.90;;;;;;5033933;28;20459;-68
2022/11/18 04:00:19;;;;;;;0.73;0.70;;;9.30;99.90;;;;;;5033951;28;20470;-68
2022/11/18 04:02:47;;;;;;;0.80;0.80;;;9.20;99.90;;;;;;5034285;28;20507;-70
2022/11/18 04:05:15;;;;;;;2.67;0.80;;;9.20;99.90;;;;;;5033539;28;20475;-70
2022/11/18 04:07:48;;;;;;;1.00;0.90;;;9.20;99.90;;;;;;5033544;28;20947;-68
2022/11/18 04:10:17;;;;;;;1.27;0.70;;;9.20;99.90;;;;;;5034002;28;20846;-69
2022/11/18 04:12:48;;;;;;;2.70;1.20;;;9.20;99.90;;;;;;5033993;28;20514;-69
2022/11/18 04:15:16;;;;;;;2.00;0.60;;;9.20;99.90;;;;;;5033668;28;20483;-70
2022/11/18 04:17:44;;;;;;;1.90;0.80;;;9.20;99.90;;;;;;5036050;28;20451;-69
2022/11/18 04:20:15;;;;;;;1.43;0.80;;;9.20;99.90;;;;;;5037846;28;20456;-70
2022/11/18 04:22:42;;;;;;;1.40;0.53;;;9.10;99.90;;;;;;5037801;28;20494;-68
2022/11/18 04:25:09;;;;;;;0.50;0.40;;;9.20;99.90;;;;;;5037505;28;20471;-68
2022/11/18 04:27:36;;;;;;;0.90;0.50;;;9.20;99.90;;;;;;5037534;28;20452;-68
2022/11/18 04:30:03;;;;;;;0.93;0.87;;;9.20;99.90;;;;;;5037599;28;20482;-69
2022/11/18 04:32:29;;;;;;;0.93;0.57;;;9.20;99.90;;;;;;5037578;28;20875;-68
2022/11/18 04:34:57;;;;;;;0.93;0.50;;;9.10;99.90;;;;;;5037274;28;20472;-68
2022/11/18 04:37:24;;;;;;;3.17;0.50;;;9.10;99.90;;;;;;5037362;28;20549;-69
2022/11/18 04:39:51;;;;;;;0.40;0.40;;;9.10;99.90;;;;;;5037219;28;20993;-69
2022/11/18 04:42:18;;;;;;;0.60;0.60;;;9.00;99.90;;;;;;5037584;28;20502;-68
2022/11/18 04:44:44;;;;;;;0.40;0.40;;;8.90;99.90;;;;;;5037389;28;20468;-69
2022/11/18 04:47:11;;;;;;;3.10;0.53;;;8.90;99.90;;;;;;5037334;28;20522;-69
2022/11/18 04:49:38;;;;;;;0.97;0.60;;;8.80;99.90;;;;;;5037205;28;20797;-70
2022/11/18 04:52:06;;;;;;;0.70;0.70;;;8.80;99.90;;;;;;5037567;28;20456;-69
2022/11/18 04:54:33;;;;;;;1.60;0.60;;;8.70;99.90;;;;;;5037123;28;20479;-69
2022/11/18 04:57:00;;;;;;;1.80;0.50;;;8.70;99.90;;;;;;5037107;28;20507;-69
2022/11/18 04:59:29;;;;;;;0.60;0.60;;;8.70;99.90;;;;;;5037194;28;20455;-68
2022/11/18 05:01:56;;;;;;;0.30;0.30;;;8.70;99.90;;;;;;5036932;28;21010;-69
2022/11/18 05:04:24;;;;;;;0.47;0.40;;;8.70;99.90;;;;;;5036985;28;20459;-68
2022/11/18 05:06:52;;;;;;;1.03;0.60;;;8.70;99.90;;;;;;5037591;28;20448;-68
2022/11/18 05:09:20;;;;;;;0.73;0.37;;;8.70;99.90;;;;;;5036951;28;20513;-69
2022/11/18 05:14:32;;;;;;;0.40;0.40;;;8.60;99.90;;;;;;5036926;28;20594;-69
2022/11/18 05:17:00;;;;;;;0.93;0.50;;;8.60;99.90;;;;;;5036959;28;20475;-70
2022/11/18 05:19:27;;;;;;;0.60;0.60;;;8.60;99.90;;;;;;5036699;28;20458;-69
2022/11/18 05:21:55;;;;;;;1.40;0.60;;;8.60;99.90;;;;;;5036906;28;20456;-69
2022/11/18 05:24:23;;;;;;;0.50;0.40;;;8.60;99.90;;;;;;5037188;28;20509;-68
2022/11/18 05:26:50;;;;;;;0.73;0.50;;;8.50;99.90;;;;;;5036882;28;20535;-69
2022/11/18 05:29:17;;;;;;;1.80;0.50;;;8.50;99.90;;;;;;5035998;28;20508;-69
2022/11/18 05:31:44;;;;;;;1.07;0.40;;;8.50;99.90;;;;;;5036432;28;20943;-70
2022/11/18 05:34:11;;;;;;;0.53;0.47;;;8.50;99.90;;;;;;5036490;28;20566;-69
2022/11/18 05:36:38;;;;;;;0.50;0.40;;;8.40;99.90;;;;;;5036564;28;20480;-68
2022/11/18 05:39:05;;;;;;;0.40;0.40;;;8.40;99.90;;;;;;5036233;28;20456;-69
2022/11/18 05:44:17;;;;;;;0.80;0.50;;;8.40;99.90;;;;;;5036665;28;20423;-68
2022/11/18 05:46:44;;;;;;;0.63;0.47;;;8.30;99.90;;;;;;5036275;28;20448;-68
2022/11/18 05:49:11;;;;;;;0.40;0.40;;;8.40;99.90;;;;;;5036370;28;20460;-69
2022/11/18 05:51:37;;;;;;;0.63;0.60;;;8.40;99.90;;;;;;5036793;28;21009;-68
2022/11/18 05:54:07;;;;;;;0.40;0.40;;;8.40;99.90;;;;;;5036145;28;20954;-69
2022/11/18 05:56:37;;;;;;;0.50;0.50;;;8.30;99.90;;;;;;5036245;28;20534;-69
2022/11/18 05:59:04;;;;;;;0.60;0.60;;;8.30;99.90;;;;;;5036261;28;21006;-68
2022/11/18 06:01:37;;;;;;;0.70;0.70;;;8.40;99.90;;;;;;5036185;28;20445;-68
2022/11/18 06:04:08;;;;;;;0.47;0.47;;;8.40;99.90;;;;;;5037360;28;20444;-68
2022/11/18 06:06:35;;;;;;;0.40;0.40;;;8.40;99.90;;;;;;5036618;28;20463;-68
2022/11/18 06:09:05;;;;;;;3.17;0.70;;;8.40;99.90;;;;;;5035905;28;20467;-68
2022/11/18 06:11:35;;;;;;;1.97;1.30;;;8.40;99.90;;;;;;5036509;28;20492;-67
2022/11/18 06:14:09;;;;;;;1.70;1.00;;;8.40;99.90;;;;;;5036622;28;20502;-69
2022/11/18 06:16:37;;;;;;;0.80;0.80;;;8.40;99.90;;;;;;5036417;28;20598;-68
2022/11/18 06:19:04;;;;;;;1.23;0.80;;;8.40;99.90;;;;;;5036096;28;20509;-68
2022/11/18 06:21:31;;;;;;;0.47;0.47;;;8.40;99.90;;;;;;5044616;28;20534;-68
2022/11/18 06:23:59;;;;;;;1.53;1.00;;;8.40;99.90;;;;;;5047244;28;20870;-68
2022/11/18 06:26:25;;;;;;;0.90;0.90;;;8.40;99.90;;;;;;5036881;28;20471;-68
2022/11/18 06:28:52;;;;;;;1.00;1.00;;;8.40;99.90;;;;;;5035874;28;20448;-68
2022/11/18 06:31:20;;;;;;;1.10;1.10;;;8.40;99.90;;;;;;5035810;28;20459;-68
2022/11/18 06:33:47;;;;;;;0.60;0.50;;;8.30;99.90;;;;;;5036884;28;20463;-69
2022/11/18 06:36:13;;;;;;;0.70;0.70;;;8.30;99.90;;;;;;5036431;28;20598;-68
2022/11/18 06:38:40;;;;;;;1.83;0.60;;;8.30;99.90;;;;;;5036486;28;20459;-68
2022/11/18 06:41:07;;;;;;;0.40;0.40;;;8.30;99.90;;;;;;5035675;28;20521;-68
2022/11/18 06:43:40;;;;;;;0.70;0.70;;;8.30;99.90;;;;;;5036420;28;20460;-68
2022/11/18 06:48:55;;;;;;;1.63;1.20;;;8.30;99.90;;;;;;5038116;28;20419;-68
2022/11/18 06:51:22;;;;;;;1.40;1.40;;;8.40;99.90;;;;;;5036453;28;20448;-68
2022/11/18 06:53:49;;;;;;;0.80;0.80;;;8.40;99.90;;;;;;5036503;28;20440;-68
2022/11/18 06:56:17;;;;;;;1.17;1.17;;;8.40;99.90;;;;;;5035856;28;20475;-68
2022/11/18 06:58:44;;;;;;;0.80;0.80;;;8.50;99.90;;;;;;5036041;28;20452;-68
2022/11/18 07:01:12;;;;;;;0.63;0.63;;;8.50;99.90;;;;;;5036008;28;20490;-68
2022/11/18 07:03:40;;;;;;;0.77;0.77;;;8.50;99.90;;;;;;5035133;28;20455;-68
2022/11/18 07:06:09;;;;;;;0.53;0.53;;;8.50;99.90;;;;;;5034612;28;20835;-68
2022/11/18 07:08:36;;;;;;;0.50;0.50;;;8.60;99.90;;;;;;5034714;28;20943;-68
2022/11/18 07:11:04;;;;;;;1.20;1.10;;;8.60;99.90;;;;;;5034854;28;20566;-68
2022/11/18 07:13:30;;;;;;;0.70;0.70;;;8.60;99.90;;;;;;5035080;28;20451;-69
2022/11/18 07:16:02;;;;;;;3.47;0.93;;;8.60;99.90;;;;;;5035797;28;20472;-68
2022/11/18 07:18:30;;;;;;;0.70;0.57;;;8.70;99.90;;;;;;5036917;28;20494;-68
2022/11/18 07:20:56;;;;;;;1.50;0.70;;;8.70;99.90;;;;;;5039833;28;20448;-69
2022/11/18 07:23:24;;;;;;;1.07;0.73;;;8.70;99.90;;;;;;5043176;28;20483;-68
2022/11/18 07:25:54;;;;;;;1.47;1.07;;;8.80;99.90;;;;;;5044370;28;20476;-68
2022/11/18 07:28:21;;;;;;;1.20;1.20;;;8.80;99.90;;;;;;5039429;28;20455;-69
2022/11/18 07:30:48;;;;;;;1.00;0.93;;;8.80;99.90;;;;;;5037955;28;20456;-67
2022/11/18 07:33:14;;;;;;;0.83;0.83;;;8.80;99.90;;;;;;5036912;28;20460;-68
2022/11/18 07:35:41;;;;;;;1.80;0.73;;;8.90;99.90;;;;;;5035449;28;20487;-68
2022/11/18 07:38:08;;;;;;;0.77;0.77;;;8.80;99.90;;;;;;5035946;28;20472;-67
2022/11/18 07:40:36;;;;;;;2.03;1.53;;;8.90;99.90;;;;;;5035621;28;20443;-68
2022/11/18 07:43:02;;;;;;;1.60;1.50;;;8.90;99.90;;;;;;5035623;28;20456;-68
2022/11/18 07:45:29;;;;;;;1.20;1.20;;;8.90;99.90;;;;;;5035207;28;20483;-69
2022/11/18 07:47:55;;;;;;;1.10;1.07;;;8.90;99.90;;;;;;5035532;28;20448;-69
2022/11/18 07:50:22;;;;;;;2.20;1.20;;;8.90;99.90;;;;;;5034240;28;20499;-68
2022/11/18 07:52:49;;;;;;;1.30;0.90;;;8.90;99.90;;;;;;5033816;28;20460;-69
2022/11/18 07:55:15;;;;;;;0.70;0.70;;;8.90;99.90;;;;;;5034482;28;20478;-68
2022/11/18 07:57:43;;;;;;;1.60;1.50;;;8.90;99.90;;;;;;5034246;28;20522;-68
2022/11/18 08:00:11;;;;;;;1.00;1.00;;;8.90;99.90;;;;;;5034032;28;20518;-68
2022/11/18 08:02:38;;;;;;;1.00;1.00;;;8.90;99.90;;;;;;5034488;28;20502;-68
2022/11/18 08:05:05;;;;;;;2.30;1.30;;;8.90;99.90;;;;;;5034573;28;20471;-68
2022/11/18 08:07:32;;;;;;;3.60;1.67;;;8.90;99.90;;;;;;5034895;28;20459;-68
2022/11/18 08:09:58;;;;;;;1.60;1.50;;;8.90;99.90;;;;;;5035405;28;20490;-68
2022/11/18 08:12:25;;;;;;;0.90;0.90;;;8.90;99.90;;;;;;5035831;28;20459;-68
2022/11/18 08:14:53;;;;;;;2.70;2.07;;;8.90;99.90;;;;;;5034698;28;20468;-68
2022/11/18 08:17:19;;;;;;;1.70;1.60;;;8.90;99.90;;;;;;5039546;28;20468;-68
2022/11/18 08:19:46;;;;;;;1.67;1.10;;;9.00;99.90;;;;;;5037266;28;20835;-68
2022/11/18 08:22:15;;;;;;;0.93;0.93;;;9.10;99.90;;;;;;5034182;28;20807;-68
2022/11/18 08:24:42;;;;;;;1.60;0.80;;;9.10;99.90;;;;;;5034690;28;20983;-69
2022/11/18 08:27:09;;;;;;;1.43;1.43;;;9.10;99.90;;;;;;5035051;28;20439;-69
2022/11/18 08:29:35;;;;;;;1.83;1.73;;;9.20;99.90;;;;;;5034846;28;20463;-68
2022/11/18 08:32:05;;;;;;;1.50;1.50;;;9.20;99.90;;;;;;5034499;28;20459;-68
2022/11/18 08:34:32;;;;;;;1.60;1.50;;;9.20;99.90;;;;;;5034624;28;20475;-68
2022/11/18 08:36:58;;;;;;;1.20;1.10;;;9.30;99.90;;;;;;5034498;28;20476;-68
2022/11/18 08:39:25;;;;;;;1.20;1.20;;;9.20;99.90;;;;;;5034128;28;20475;-69
2022/11/18 08:41:52;;;;;;;1.53;1.20;;;9.20;99.90;;;;;;5034492;28;20553;-69
2022/11/18 08:44:19;;;;;;;1.50;1.50;;;9.20;99.90;;;;;;5034712;28;20998;-68
2022/11/18 08:46:46;;;;;;;1.97;1.87;;;9.20;99.90;;;;;;5036091;28;20455;-67
2022/11/18 08:49:14;;;;;;;1.80;1.73;;;9.30;99.90;;;;;;5034480;28;20455;-68
2022/11/18 08:51:41;;;;;;;2.13;2.03;;;9.40;99.90;;;;;;5034089;28;20464;-68
2022/11/18 08:54:08;;;;;;;1.50;1.50;;;9.40;99.90;;;;;;5034949;28;20471;-67
2022/11/18 08:56:34;;;;;;;1.80;1.70;;;9.40;99.90;;;;;;5035990;28;21018;-68
2022/11/18 08:59:01;;;;;;;3.63;1.53;;;9.40;99.90;;;;;;5034637;28;20452;-67
2022/11/18 09:01:28;;;;;;;1.90;1.80;;;9.50;99.90;;;;;;5035021;28;20460;-68
2022/11/18 09:03:56;;;;;;;2.40;2.20;;;9.50;99.90;;;;;;5038036;28;20462;-68
2022/11/18 09:06:25;;;;;;;2.20;1.80;;;9.50;99.90;;;;;;5055322;28;20494;-69
2022/11/18 09:08:52;;;;;;;2.80;2.00;;;9.60;99.90;;;;;;5056847;28;20435;-69
2022/11/18 09:11:20;;;;;;;1.30;1.30;;;9.60;99.90;;;;;;5056355;28;20444;-69
2022/11/18 09:13:47;;;;;;;1.00;1.00;;;9.60;99.90;;;;;;5057529;28;20479;-69
2022/11/18 09:16:14;;;;;;;1.70;1.60;;;9.70;99.90;;;;;;5049478;28;20477;-68
2022/11/18 09:18:40;;;;;;;4.47;1.67;;;9.60;99.90;;;;;;5040641;28;20468;-69
2022/11/18 09:21:09;;;;;;;1.73;1.63;;;9.70;99.90;;;;;;5038882;28;20487;-68
2022/11/18 09:23:38;;;;;;;2.77;1.40;;;9.70;99.90;;;;;;5038870;28;20452;-68
2022/11/18 09:26:07;;;;;;;1.40;1.40;;;9.70;99.90;;;;;;5037886;28;20511;-69
2022/11/18 09:28:34;;;;;;;1.50;1.50;;;9.70;99.90;;;;;;5037691;28;20448;-70
2022/11/18 09:31:04;;;;;;;3.03;1.30;;;9.80;99.90;;;;;;5037823;28;20455;-69
2022/11/18 09:33:31;;;;;;;1.67;1.57;;;9.80;99.90;;;;;;5037699;28;21010;-69
2022/11/18 09:35:58;;;;;;;1.60;1.50;;;9.80;99.90;;;;;;5037978;28;21033;-69
2022/11/18 09:38:24;;;;;;;2.37;2.27;;;9.70;99.90;;;;;;5037266;28;20533;-69
2022/11/18 09:41:04;;;;;;;1.50;1.40;;;9.80;99.90;;;;;;5037174;28;20494;-69
2022/11/18 09:43:40;;;;;;;1.50;1.37;;;9.80;99.90;;;;;;5037919;28;20439;-70
2022/11/18 09:46:20;;;;;;;1.80;1.70;;;9.80;99.90;;;;;;5036873;28;20598;-70
2022/11/18 09:51:39;;;;;;;4.63;2.40;;;9.90;99.90;;;;;;5047163;28;20458;-70
2022/11/18 09:54:11;;;;;;;1.13;1.03;;;9.90;99.90;;;;;;5046453;28;20468;-70
2022/11/18 09:56:40;;;;;;;2.83;2.63;;;9.90;99.90;;;;;;5039422;28;20504;-70
2022/11/18 09:59:10;;;;;;;1.30;1.30;;;10.00;99.90;;;;;;5039169;28;20449;-70
2022/11/18 10:01:37;;;;;;;1.50;1.40;;;9.90;99.90;;;;;;5038929;28;20523;-69
2022/11/18 10:04:03;;;;;;;4.00;1.70;;;9.90;99.90;;;;;;5037901;28;20530;-69
2022/11/18 10:06:33;;;;;;;1.87;1.87;;;9.90;99.90;;;;;;5037780;28;20579;-70
2022/11/18 10:09:10;;;;;;;2.10;2.00;;;9.90;99.90;;;;;;5037660;28;20978;-69
2022/11/18 10:11:45;;;;;;;1.80;1.80;;;9.90;99.90;;;;;;5037559;28;20435;-70
2022/11/18 10:14:22;;;;;;;1.97;1.87;;;9.90;99.90;;;;;;5037823;28;20443;-70
2022/11/18 10:16:58;;;;;;;3.10;2.90;;;9.80;99.90;;;;;;5037411;28;20493;-70
2022/11/18 10:19:29;;;;;;;2.70;2.60;;;9.80;99.90;;;;;;5036948;28;20499;-69
2022/11/18 10:22:07;;;;;;;3.10;2.90;;;9.80;99.90;;;;;;5036869;28;20443;-69
2022/11/18 10:24:39;;;;;;;2.10;1.90;;;9.80;99.90;;;;;;5036851;28;20503;-70
2022/11/18 10:27:11;;;;;;;2.57;2.40;;;9.90;99.90;;;;;;5036619;28;20436;-70
2022/11/18 10:29:38;;;;;;;1.83;1.83;;;9.90;99.90;;;;;;5037782;28;20520;-70
2022/11/18 10:32:07;;;;;;;2.40;2.30;;;10.00;99.90;;;;;;5036536;28;20465;-70
2022/11/18 10:34:35;;;;;;;2.63;2.43;;;10.10;99.90;;;;;;5036222;28;20514;-70
2022/11/18 10:37:04;;;;;;;2.40;2.20;;;10.30;99.90;;;;;;5036396;28;20506;-69
2022/11/18 10:39:31;;;;;;;2.93;2.83;;;10.30;99.90;;;;;;5036457;28;20455;-70
2022/11/18 10:42:02;;;;;;;3.17;2.40;;;10.40;99.90;;;;;;5036557;28;20451;-70
2022/11/18 10:44:36;;;;;;;2.40;2.20;;;10.40;99.90;;;;;;5035692;28;20479;-69
2022/11/18 10:47:31;;;;;;;2.20;2.10;;;10.40;99.90;;;;;;5035874;28;20498;-69
2022/11/18 10:50:00;;;;;;;2.50;2.30;;;10.40;99.90;;;;;;5001530;28;20820;-69
2022/11/18 10:52:28;;;;;;;4.63;2.37;;;10.40;99.90;;;;;;5035311;28;20455;-70
2022/11/18 10:55:21;;;;;;;2.20;2.10;;;10.50;99.90;;;;;;5035371;28;20503;-69
2022/11/18 10:57:51;;;;;;;2.63;1.90;;;10.60;99.90;;;;;;5035416;28;20475;-68
2022/11/18 11:00:40;;;;;;;2.23;2.13;;;10.70;99.90;;;;;;5035468;28;20459;-70
2022/11/18 11:03:35;;;;;;;5.73;2.20;;;10.90;99.90;;;;;;5035178;28;20452;-69
2022/11/18 11:06:22;;;;;;;3.20;2.20;;;10.80;99.90;;;;;;5035548;28;20483;-69
2022/11/18 11:08:51;;;;;;;2.37;2.27;;;10.80;99.90;;;;;;5035549;28;20436;-70
2022/11/18 11:11:27;;;;;;;2.33;2.13;;;10.70;99.90;;;;;;5035418;28;20456;-71
2022/11/18 11:14:15;;;;;;;2.60;2.40;;;10.60;99.90;;;;;;5036394;28;20801;-71
2022/11/18 11:16:49;;;;;;;2.50;2.27;;;10.60;99.90;;;;;;5036383;28;20443;-70
2022/11/18 11:19:21;;;;;;;2.33;2.13;;;10.60;99.90;;;;;;5035611;28;20818;-70
2022/11/18 11:21:48;;;;;;;3.03;2.50;;;10.50;99.90;;;;;;5035070;28;20436;-70
2022/11/18 11:24:14;;;;;;;3.00;2.80;;;10.50;99.90;;;;;;5035647;28;20463;-70
2022/11/18 11:26:51;;;;;;;2.80;2.60;;;10.50;99.90;;;;;;5035373;28;20952;-70
2022/11/18 11:29:55;;;;;;;2.23;2.13;;;10.50;99.90;;;;;;5035347;28;20436;-69
2022/11/18 11:32:32;;;;;;;1.87;1.80;;;10.50;99.90;;;;;;5035577;28;20432;-70
2022/11/18 11:35:09;;;;;;;1.90;1.80;;;10.50;99.90;;;;;;5035585;28;20476;-70
2022/11/18 11:37:46;;;;;;;2.23;1.93;;;10.50;99.90;;;;;;5034665;28;20472;-70
2022/11/18 11:40:24;;;;;;;3.33;1.70;;;10.60;99.90;;;;;;5035375;28;20459;-70
2022/11/18 11:43:00;;;;;;;3.37;2.10;;;10.70;99.90;;;;;;5035443;28;20803;-70
2022/11/18 11:45:34;;;;;;;2.93;2.00;;;10.90;99.90;;;;;;5034551;28;20979;-71
2022/11/18 11:48:20;;;;;;;2.70;1.40;;;11.00;99.90;;;;;;5035788;28;20803;-70
2022/11/18 11:50:57;;;;;;;1.83;1.40;;;11.20;99.90;;;;;;5035363;28;20435;-70
2022/11/18 11:53:56;;;;;;;1.90;1.80;;;11.30;99.90;;;;;;5034211;28;20455;-70
2022/11/18 11:56:30;;;;;;;1.20;1.20;;;11.40;99.90;;;;;;5035008;28;20472;-70
2022/11/18 11:59:24;;;;;;;3.03;1.50;;;11.30;99.90;;;;;;5034086;28;20510;-71
2022/11/18 12:02:03;;;;;;;5.07;1.97;;;11.30;99.90;;;;;;5024085;28;20916;-70
2022/11/18 12:04:41;;;;;;;2.20;1.13;;;11.20;99.90;;;;;;5034095;28;20530;-71
2022/11/18 12:07:16;;;;;;;1.30;1.20;;;11.10;99.90;;;;;;5034187;28;20455;-71
2022/11/18 12:10:00;;;;;;;2.77;1.27;;;11.20;99.90;;;;;;5034021;28;20435;-70
2022/11/18 12:12:37;;;;;;;1.70;1.33;;;11.20;99.90;;;;;;5033997;28;20444;-71
2022/11/18 12:15:18;;;;;;;2.00;1.90;;;11.20;99.90;;;;;;5034130;28;20478;-71
2022/11/18 12:17:53;;;;;;;2.10;1.57;;;11.20;99.90;;;;;;5034172;28;20471;-70
2022/11/18 12:20:38;;;;;;;3.63;1.50;;;11.20;99.90;;;;;;5034323;28;20436;-70
2022/11/18 12:23:10;;;;;;;1.20;1.07;;;11.20;99.90;;;;;;5034202;28;20443;-71
2022/11/18 12:25:55;;;;;;;1.30;1.30;;;11.40;99.90;;;;;;5034844;28;20559;-71
2022/11/18 12:28:34;;;;;;;1.30;1.20;;;11.50;99.90;;;;;;5033981;28;20428;-70
2022/11/18 12:31:35;;;;;;;1.77;1.33;;;11.50;99.90;;;;;;5034890;28;20501;-71
2022/11/18 12:34:05;;;;;;;1.43;1.20;;;11.50;99.90;;;;;;5035073;28;20431;-71
2022/11/18 12:36:35;;;;;;;1.47;1.03;;;11.60;99.90;;;;;;5034954;28;20530;-71
2022/11/18 12:39:35;;;;;;;1.60;1.50;;;11.50;99.90;;;;;;5035673;28;20468;-71
2022/11/18 12:44:48;;;;;;;1.30;1.27;;;11.60;99.90;;;;;;5038438;28;20974;-71
2022/11/18 12:47:15;;;;;;;3.20;1.70;;;11.60;99.90;;;;;;5045777;28;20470;-70
2022/11/18 12:50:11;;;;;;;1.40;1.30;;;11.60;99.90;;;;;;5039636;28;20455;-71
2022/11/18 12:52:54;;;;;;;1.53;1.43;;;11.50;99.90;;;;;;5047175;28;20510;-71
2022/11/18 12:55:33;;;;;;;5.90;1.80;;;11.40;99.90;;;;;;5041994;28;20982;-70
2022/11/18 12:58:00;;;;;;;3.13;1.50;;;11.30;99.90;;;;;;5046404;28;20459;-72
2022/11/18 13:00:50;;;;;;;3.77;1.97;;;11.30;99.90;;;;;;5043165;28;20455;-71
2022/11/18 13:03:23;;;;;;;2.53;1.57;;;11.20;99.90;;;;;;5040853;28;20460;-70
2022/11/18 13:05:51;;;;;;;3.80;1.70;;;11.20;99.90;;;;;;5040175;28;20483;-71
2022/11/18 13:08:19;;;;;;;1.77;1.67;;;11.10;99.90;;;;;;5039327;28;20948;-70
2022/11/18 13:10:48;;;;;;;3.23;1.77;;;11.00;99.90;;;;;;5039089;28;20452;-71
2022/11/18 13:13:28;;;;;;;3.20;1.50;;;10.90;99.90;;;;;;5038102;28;20456;-71
2022/11/18 13:18:53;;;;;;;4.33;2.80;;;10.70;99.90;;;;;;5037848;28;20475;-71
2022/11/18 13:24:11;;;;;;;2.43;1.90;;;10.60;99.90;;;;;;5037874;28;20915;-71
2022/11/18 13:26:41;;;;;;;1.60;1.23;;;10.60;99.90;;;;;;5038086;28;20440;-70
2022/11/18 13:29:25;;;;;;;2.23;1.40;;;10.60;99.90;;;;;;5037938;28;20866;-71
2022/11/18 13:32:03;;;;;;;1.30;1.20;;;10.70;99.90;;;;;;5037493;28;20436;-70
2022/11/18 13:34:31;;;;;;;4.00;2.07;;;10.70;99.90;;;;;;5037038;28;20440;-71
2022/11/18 13:36:59;;;;;;;3.10;1.83;;;10.70;99.90;;;;;;5036908;28;20452;-71